createdAt,value
2018-07-07T00:00:11.007Z,11.90
2018-07-07T00:02:39.997Z,14.67
2018-07-07T00:05:09.329Z,21.03
2018-07-07T00:07:39.182Z,12.33
2018-07-07T00:10:08.518Z,15.17
2018-07-07T00:12:37.289Z,14.77
2018-07-07T00:15:06.018Z,10.10
2018-07-07T00:17:34.673Z,11.87
2018-07-07T00:20:03.251Z,13.27
2018-07-07T00:22:31.740Z,14.90
2018-07-07T00:25:00.309Z,12.80
2018-07-07T00:27:28.908Z,17.03
2018-07-07T00:29:57.626Z,8.90
2018-07-07T00:32:26.164Z,10.00
2018-07-07T00:34:54.728Z,10.87
2018-07-07T00:37:23.290Z,18.40
2018-07-07T00:39:51.833Z,9.97
2018-07-07T00:42:20.441Z,12.90
2018-07-07T00:44:48.968Z,14.63
2018-07-07T00:47:17.512Z,16.13
2018-07-07T00:49:46.057Z,11.67
2018-07-07T00:52:14.565Z,14.03
2018-07-07T00:54:43.101Z,8.93
2018-07-07T00:57:11.644Z,13.07
2018-07-07T00:59:40.225Z,10.67
2018-07-07T01:02:12.981Z,14.97
2018-07-07T01:04:41.563Z,16.90
2018-07-07T01:07:10.154Z,8.17
2018-07-07T01:09:38.758Z,17.37
2018-07-07T01:12:07.562Z,11.13
2018-07-07T01:14:36.147Z,11.90
2018-07-07T01:17:04.730Z,11.80
2018-07-07T01:19:33.327Z,11.03
2018-07-07T01:22:01.843Z,18.47
2018-07-07T01:24:30.479Z,18.53
2018-07-07T01:26:59.012Z,9.90
2018-07-07T01:29:27.631Z,14.37
2018-07-07T01:31:56.200Z,16.73
2018-07-07T01:34:24.751Z,14.53
2018-07-07T01:36:53.313Z,18.03
2018-07-07T01:39:21.889Z,11.83
2018-07-07T01:41:50.413Z,11.60
2018-07-07T01:44:19.004Z,13.17
2018-07-07T01:46:47.526Z,20.37
2018-07-07T01:49:16.017Z,22.17
2018-07-07T01:51:44.507Z,16.10
2018-07-07T01:54:13.255Z,17.07
2018-07-07T01:56:41.778Z,18.37
2018-07-07T01:59:10.264Z,13.03
2018-07-07T02:01:38.778Z,10.20
2018-07-07T02:04:07.292Z,13.87
2018-07-07T02:06:35.799Z,15.57
2018-07-07T02:09:04.769Z,19.93
2018-07-07T02:11:35.410Z,16.37
2018-07-07T02:14:03.931Z,16.87
2018-07-07T02:16:32.465Z,15.57
2018-07-07T02:19:00.949Z,18.53
2018-07-07T02:21:29.555Z,12.43
2018-07-07T02:23:58.065Z,18.53
2018-07-07T02:26:26.558Z,16.57
2018-07-07T02:28:55.015Z,14.07
2018-07-07T02:31:23.595Z,26.20
2018-07-07T02:33:52.021Z,17.60
2018-07-07T02:36:20.570Z,21.37
2018-07-07T02:38:49.093Z,13.00
2018-07-07T02:41:17.614Z,13.47
2018-07-07T02:43:46.111Z,14.60
2018-07-07T02:46:15.894Z,13.20
2018-07-07T02:48:44.412Z,12.53
2018-07-07T02:51:12.923Z,16.93
2018-07-07T02:53:41.407Z,14.27
2018-07-07T02:56:09.942Z,15.03
2018-07-07T02:58:38.466Z,12.43
2018-07-07T03:01:06.972Z,13.87
2018-07-07T03:03:35.472Z,11.63
2018-07-07T03:06:03.994Z,12.30
2018-07-07T03:08:32.560Z,20.37
2018-07-07T03:11:01.046Z,15.20
2018-07-07T03:13:29.548Z,12.53
2018-07-07T03:15:58.051Z,12.33
2018-07-07T03:18:26.262Z,16.67
2018-07-07T03:20:54.825Z,22.03
2018-07-07T03:23:23.302Z,16.37
2018-07-07T03:25:51.821Z,13.33
2018-07-07T03:28:20.356Z,14.43
2018-07-07T03:30:48.930Z,13.87
2018-07-07T03:33:17.558Z,17.50
2018-07-07T03:35:46.043Z,19.87
2018-07-07T03:38:14.588Z,18.17
2018-07-07T03:40:43.080Z,9.03
2018-07-07T03:43:11.590Z,18.63
2018-07-07T03:45:40.080Z,13.83
2018-07-07T03:48:08.614Z,10.77
2018-07-07T03:50:37.189Z,14.23
2018-07-07T03:53:05.838Z,18.20
2018-07-07T03:55:34.357Z,14.60
2018-07-07T03:58:02.861Z,11.97
2018-07-07T04:00:31.379Z,11.90
2018-07-07T04:02:59.950Z,16.10
2018-07-07T04:05:28.408Z,9.60
2018-07-07T04:07:56.912Z,13.90
2018-07-07T04:10:25.442Z,6.13
2018-07-07T04:12:53.942Z,17.83
2018-07-07T04:15:22.481Z,12.40
2018-07-07T04:17:51.051Z,9.23
2018-07-07T04:20:19.552Z,15.30
2018-07-07T04:22:48.075Z,15.37
2018-07-07T04:25:16.547Z,16.70
2018-07-07T04:27:45.045Z,9.00
2018-07-07T04:30:13.628Z,10.70
2018-07-07T04:32:41.830Z,10.63
2018-07-07T04:35:10.315Z,9.50
2018-07-07T04:37:38.886Z,10.73
2018-07-07T04:40:07.404Z,14.13
2018-07-07T04:42:35.950Z,16.27
2018-07-07T04:45:04.469Z,12.57
2018-07-07T04:47:32.980Z,17.93
2018-07-07T04:50:01.458Z,14.03
2018-07-07T04:52:30.165Z,12.10
2018-07-07T04:54:58.579Z,13.37
2018-07-07T04:57:27.089Z,10.23
2018-07-07T04:59:55.569Z,7.83
2018-07-07T05:02:24.161Z,13.13
2018-07-07T05:04:52.688Z,8.70
2018-07-07T05:07:21.243Z,15.80
2018-07-07T05:09:49.715Z,7.23
2018-07-07T05:12:18.236Z,13.93
2018-07-07T05:14:46.769Z,4.93
2018-07-07T05:17:15.336Z,10.87
2018-07-07T05:19:43.869Z,13.37
2018-07-07T05:22:12.408Z,10.90
2018-07-07T05:24:40.897Z,9.57
2018-07-07T05:27:09.414Z,8.60
2018-07-07T05:29:37.604Z,13.03
2018-07-07T05:32:06.271Z,9.67
2018-07-07T05:34:34.805Z,14.13
2018-07-07T05:37:03.319Z,10.83
2018-07-07T05:39:31.826Z,12.57
2018-07-07T05:42:00.365Z,14.13
2018-07-07T05:44:28.960Z,7.57
2018-07-07T05:46:57.607Z,8.53
2018-07-07T05:49:26.143Z,7.10
2018-07-07T05:51:55.020Z,5.43
2018-07-07T05:54:23.480Z,13.50
2018-07-07T05:56:52.022Z,6.23
2018-07-07T05:59:20.868Z,8.40
2018-07-07T06:01:49.367Z,10.80
2018-07-07T06:04:17.876Z,10.67
2018-07-07T06:06:46.381Z,8.70
2018-07-07T06:09:14.993Z,9.87
2018-07-07T06:11:43.550Z,7.17
2018-07-07T06:14:12.035Z,7.77
2018-07-07T06:16:40.606Z,10.30
2018-07-07T06:19:09.227Z,10.60
2018-07-07T06:21:37.441Z,12.10
2018-07-07T06:24:05.923Z,8.73
2018-07-07T06:26:34.609Z,14.50
2018-07-07T06:29:03.053Z,6.97
2018-07-07T06:31:31.667Z,8.47
2018-07-07T06:34:00.195Z,5.60
2018-07-07T06:36:29.477Z,4.97
2018-07-07T06:38:58.175Z,7.27
2018-07-07T06:41:26.723Z,9.90
2018-07-07T06:43:55.282Z,8.03
2018-07-07T06:46:23.830Z,7.23
2018-07-07T06:48:52.351Z,11.27
2018-07-07T06:51:20.929Z,7.30
2018-07-07T06:53:49.494Z,6.60
2018-07-07T06:56:17.989Z,14.33
2018-07-07T06:58:46.462Z,5.70
2018-07-07T07:01:16.208Z,4.57
2018-07-07T07:03:44.770Z,9.70
2018-07-07T07:06:13.252Z,7.60
2018-07-07T07:08:41.719Z,7.43
2018-07-07T07:11:10.224Z,7.83
2018-07-07T07:13:38.755Z,5.80
2018-07-07T07:16:07.248Z,2.57
2018-07-07T07:18:35.760Z,5.10
2018-07-07T07:21:04.271Z,4.83
2018-07-07T07:23:32.795Z,8.67
2018-07-07T07:26:01.057Z,6.67
2018-07-07T07:28:29.535Z,9.80
2018-07-07T07:30:58.119Z,8.47
2018-07-07T07:33:26.724Z,6.53
2018-07-07T07:35:55.245Z,9.30
2018-07-07T07:38:23.695Z,7.03
2018-07-07T07:40:52.221Z,10.13
2018-07-07T07:43:20.777Z,8.67
2018-07-07T07:45:49.396Z,6.13
2018-07-07T07:48:17.614Z,5.63
2018-07-07T07:50:46.102Z,8.07
2018-07-07T07:53:14.588Z,6.67
2018-07-07T07:55:43.091Z,2.93
2018-07-07T07:58:11.601Z,7.43
2018-07-07T08:00:40.137Z,7.00
2018-07-07T08:03:08.558Z,4.80
2018-07-07T08:05:37.102Z,6.70
2018-07-07T08:08:05.663Z,6.90
2018-07-07T08:10:34.225Z,10.47
2018-07-07T08:13:02.746Z,8.80
2018-07-07T08:15:31.278Z,8.67
2018-07-07T08:17:59.741Z,7.37
2018-07-07T08:20:28.278Z,9.17
2018-07-07T08:22:56.891Z,8.50
2018-07-07T08:25:25.335Z,9.10
2018-07-07T08:27:53.830Z,6.80
2018-07-07T08:30:22.385Z,5.10
2018-07-07T08:32:50.984Z,8.17
2018-07-07T08:35:19.501Z,2.20
2018-07-07T08:37:48.020Z,7.07
2018-07-07T08:40:16.507Z,14.20
2018-07-07T08:42:45.142Z,5.90
2018-07-07T08:45:13.669Z,9.50
2018-07-07T08:47:41.882Z,11.67
2018-07-07T08:50:10.413Z,6.57
2018-07-07T08:52:38.935Z,8.83
2018-07-07T08:55:07.427Z,5.50
2018-07-07T08:57:35.947Z,9.90
2018-07-07T09:00:04.666Z,7.63
2018-07-07T09:02:33.181Z,6.20
2018-07-07T09:05:01.705Z,6.90
2018-07-07T09:07:30.219Z,4.73
2018-07-07T09:09:59.378Z,5.40
2018-07-07T09:12:27.960Z,9.00
2018-07-07T09:14:56.450Z,9.50
2018-07-07T09:17:25.017Z,4.10
2018-07-07T09:19:53.652Z,5.27
2018-07-07T09:22:22.165Z,5.00
2018-07-07T09:24:50.643Z,5.57
2018-07-07T09:27:19.148Z,6.23
2018-07-07T09:29:47.597Z,8.00
2018-07-07T09:32:16.120Z,8.63
2018-07-07T09:34:44.566Z,9.57
2018-07-07T09:37:13.132Z,6.47
2018-07-07T09:39:41.731Z,11.20
2018-07-07T09:42:10.344Z,9.67
2018-07-07T09:44:38.855Z,8.37
2018-07-07T09:47:07.387Z,7.33
2018-07-07T09:49:35.907Z,6.77
2018-07-07T09:52:04.492Z,10.13
2018-07-07T09:54:33.060Z,5.43
2018-07-07T09:57:01.774Z,1.83
2018-07-07T09:59:31.094Z,7.87
2018-07-07T10:01:59.676Z,5.47
2018-07-07T10:04:32.502Z,14.20
2018-07-07T10:07:01.249Z,6.03
2018-07-07T10:09:30.224Z,7.40
2018-07-07T10:11:58.784Z,9.20
2018-07-07T10:14:27.804Z,6.17
2018-07-07T10:16:56.442Z,9.03
2018-07-07T10:19:25.510Z,3.13
2018-07-07T10:21:54.946Z,2.27
2018-07-07T10:24:23.727Z,8.20
2018-07-07T10:26:51.944Z,5.13
2018-07-07T10:29:20.496Z,6.23
2018-07-07T10:31:49.024Z,7.00
2018-07-07T10:34:17.536Z,8.20
2018-07-07T10:36:46.471Z,4.87
2018-07-07T10:39:14.978Z,5.17
2018-07-07T10:41:43.479Z,4.83
2018-07-07T10:44:12.009Z,5.63
2018-07-07T10:46:40.860Z,4.33
2018-07-07T10:49:09.471Z,5.40
2018-07-07T10:51:38.001Z,4.70
2018-07-07T10:54:06.984Z,5.27
2018-07-07T10:56:35.713Z,4.90
2018-07-07T10:59:07.222Z,5.67
2018-07-07T11:01:35.808Z,8.77
2018-07-07T11:04:04.299Z,5.13
2018-07-07T11:06:32.822Z,5.77
2018-07-07T11:09:01.831Z,7.90
2018-07-07T11:11:30.339Z,4.77
2018-07-07T11:14:01.854Z,13.80
2018-07-07T11:16:30.676Z,7.20
2018-07-07T11:18:59.267Z,6.80
2018-07-07T11:21:27.760Z,7.20
2018-07-07T11:23:56.802Z,2.97
2018-07-07T11:26:26.288Z,3.13
2018-07-07T11:28:58.455Z,7.43
2018-07-07T11:31:26.617Z,3.83
2018-07-07T11:33:55.331Z,3.30
2018-07-07T11:36:24.325Z,5.53
2018-07-07T11:38:53.198Z,4.93
2018-07-07T11:41:22.981Z,5.27
2018-07-07T11:43:52.522Z,4.40
2018-07-07T11:46:21.057Z,5.77
2018-07-07T11:48:51.926Z,3.17
2018-07-07T11:51:20.385Z,7.53
2018-07-07T11:53:48.916Z,10.23
2018-07-07T11:56:17.411Z,5.57
2018-07-07T11:58:46.010Z,7.77
2018-07-07T12:01:14.601Z,3.90
2018-07-07T12:03:42.833Z,2.30
2018-07-07T12:06:11.465Z,5.40
2018-07-07T12:08:40.077Z,5.87
2018-07-07T12:11:08.789Z,3.43
2018-07-07T12:13:37.326Z,7.97
2018-07-07T12:16:05.891Z,13.73
2018-07-07T12:18:34.419Z,3.80
2018-07-07T12:21:02.957Z,4.73
2018-07-07T12:23:31.444Z,5.57
2018-07-07T12:25:59.971Z,6.37
2018-07-07T12:28:28.522Z,2.17
2018-07-07T12:30:57.058Z,6.57
2018-07-07T12:33:25.729Z,3.30
2018-07-07T12:35:54.288Z,3.30
2018-07-07T12:38:22.838Z,3.37
2018-07-07T12:40:51.398Z,5.30
2018-07-07T12:43:19.925Z,7.77
2018-07-07T12:45:48.434Z,5.90
2018-07-07T12:48:16.952Z,4.47
2018-07-07T12:50:45.485Z,2.63
2018-07-07T12:53:13.948Z,5.77
2018-07-07T12:55:42.476Z,9.20
2018-07-07T12:58:10.977Z,3.53
2018-07-07T13:00:39.558Z,4.53
2018-07-07T13:03:08.038Z,4.63
2018-07-07T13:05:36.525Z,3.17
2018-07-07T13:08:05.112Z,5.77
2018-07-07T13:10:33.642Z,4.90
2018-07-07T13:13:01.788Z,6.10
2018-07-07T13:18:08.687Z,3.90
2018-07-07T13:20:37.244Z,8.80
2018-07-07T13:23:06.649Z,5.80
2018-07-07T13:25:35.143Z,5.37
2018-07-07T13:28:03.713Z,3.70
2018-07-07T13:30:32.282Z,4.00
2018-07-07T13:33:00.854Z,2.80
2018-07-07T13:35:29.298Z,2.13
2018-07-07T13:37:57.773Z,2.03
2018-07-07T13:40:26.299Z,8.23
2018-07-07T13:42:54.817Z,5.37
2018-07-07T13:45:23.385Z,4.23
2018-07-07T13:47:51.905Z,7.37
2018-07-07T13:50:20.411Z,7.90
2018-07-07T13:52:48.954Z,3.93
2018-07-07T13:55:17.410Z,4.17
2018-07-07T13:57:45.913Z,5.77
2018-07-07T14:00:14.420Z,5.10
2018-07-07T14:02:42.881Z,5.43
2018-07-07T14:05:11.391Z,6.80
2018-07-07T14:07:39.931Z,3.80
2018-07-07T14:10:08.438Z,2.53
2018-07-07T14:12:36.611Z,4.23
2018-07-07T14:15:05.126Z,9.67
2018-07-07T14:17:33.838Z,4.40
2018-07-07T14:20:02.298Z,6.83
2018-07-07T14:22:30.808Z,2.43
2018-07-07T14:24:59.266Z,7.33
2018-07-07T14:27:27.734Z,5.80
2018-07-07T14:29:56.249Z,5.30
2018-07-07T14:32:24.763Z,4.87
2018-07-07T14:34:53.259Z,8.70
2018-07-07T14:37:21.789Z,5.20
2018-07-07T14:39:56.008Z,4.23
2018-07-07T14:42:48.513Z,5.13
2018-07-07T14:45:19.776Z,5.20
2018-07-07T14:47:49.350Z,5.80
2018-07-07T14:50:17.994Z,1.93
2018-07-07T14:52:46.902Z,3.00
2018-07-07T14:55:16.542Z,3.03
2018-07-07T14:57:45.445Z,5.53
2018-07-07T15:00:19.190Z,3.40
2018-07-07T15:02:48.691Z,6.43
2018-07-07T15:05:17.258Z,4.50
2018-07-07T15:07:46.218Z,4.73
2018-07-07T15:10:15.368Z,7.03
2018-07-07T15:12:44.949Z,4.70
2018-07-07T15:15:13.854Z,1.70
2018-07-07T15:17:43.339Z,4.63
2018-07-07T15:20:11.940Z,5.80
2018-07-07T15:22:40.497Z,3.63
2018-07-07T15:25:09.304Z,7.43
2018-07-07T15:27:37.852Z,4.73
2018-07-07T15:30:06.714Z,5.50
2018-07-07T15:32:35.290Z,3.77
2018-07-07T15:35:03.870Z,5.93
2018-07-07T15:37:32.375Z,5.47
2018-07-07T15:40:00.858Z,6.17
2018-07-07T15:42:29.376Z,7.67
2018-07-07T15:44:57.899Z,2.70
2018-07-07T15:47:26.366Z,4.13
2018-07-07T15:49:54.924Z,6.07
2018-07-07T15:52:23.767Z,9.23
2018-07-07T15:54:53.033Z,5.77
2018-07-07T15:57:21.608Z,2.57
2018-07-07T15:59:50.001Z,4.27
2018-07-07T16:02:18.489Z,5.10
2018-07-07T16:04:48.388Z,4.27
2018-07-07T16:07:16.960Z,5.10
2018-07-07T16:09:45.541Z,6.07
2018-07-07T16:12:14.062Z,6.23
2018-07-07T16:14:42.514Z,3.27
2018-07-07T16:17:11.059Z,4.87
2018-07-07T16:19:39.506Z,3.33
2018-07-07T16:22:08.159Z,6.73
2018-07-07T16:24:36.658Z,7.40
2018-07-07T16:27:05.477Z,9.07
2018-07-07T16:29:34.180Z,3.70
2018-07-07T16:32:02.715Z,5.03
2018-07-07T16:34:31.809Z,3.47
2018-07-07T16:37:00.384Z,3.50
2018-07-07T16:39:29.277Z,10.10
2018-07-07T16:41:57.899Z,5.97
2018-07-07T16:44:26.802Z,4.43
2018-07-07T16:46:55.715Z,6.17
2018-07-07T16:49:24.291Z,3.00
2018-07-07T16:51:52.995Z,5.50
2018-07-07T16:54:22.376Z,8.90
2018-07-07T16:56:51.154Z,4.27
2018-07-07T16:59:19.707Z,5.47
2018-07-07T17:01:49.555Z,4.47
2018-07-07T17:04:18.403Z,4.63
2018-07-07T17:06:46.983Z,7.80
2018-07-07T17:09:15.634Z,9.77
2018-07-07T17:11:44.281Z,7.07
2018-07-07T17:14:13.274Z,4.63
2018-07-07T17:16:42.429Z,5.73
2018-07-07T17:19:11.491Z,8.73
2018-07-07T17:21:40.048Z,3.87
2018-07-07T17:24:08.589Z,5.43
2018-07-07T17:26:37.084Z,2.63
2018-07-07T17:29:05.980Z,3.80
2018-07-07T17:31:34.569Z,5.93
2018-07-07T17:34:03.286Z,5.90
2018-07-07T17:36:31.838Z,4.77
2018-07-07T17:39:01.691Z,9.53
2018-07-07T17:41:30.322Z,3.13
2018-07-07T17:43:58.875Z,7.27
2018-07-07T17:46:27.382Z,14.53
2018-07-07T17:48:55.566Z,8.73
2018-07-07T17:51:24.071Z,5.07
2018-07-07T17:53:52.601Z,4.10
2018-07-07T17:56:21.142Z,4.83
2018-07-07T17:58:49.931Z,7.20
2018-07-07T18:01:18.463Z,7.37
2018-07-07T18:03:46.962Z,9.47
2018-07-07T18:06:15.475Z,4.30
2018-07-07T18:08:43.630Z,5.23
2018-07-07T18:11:12.135Z,9.23
2018-07-07T18:13:40.599Z,12.07
2018-07-07T18:16:09.092Z,4.77
2018-07-07T18:18:37.928Z,4.90
2018-07-07T18:21:06.685Z,3.27
2018-07-07T18:23:35.149Z,5.80
2018-07-07T18:26:03.638Z,8.43
2018-07-07T18:28:32.101Z,5.83
2018-07-07T18:31:00.639Z,9.73
2018-07-07T18:33:29.201Z,6.90
2018-07-07T18:35:57.712Z,6.97
2018-07-07T18:38:25.871Z,7.20
2018-07-07T18:40:54.466Z,6.23
2018-07-07T18:43:22.943Z,8.37
2018-07-07T18:45:51.490Z,8.10
2018-07-07T18:48:19.973Z,8.90
2018-07-07T18:50:48.446Z,6.27
2018-07-07T18:53:18.106Z,5.30
2018-07-07T18:55:46.643Z,11.57
2018-07-07T18:58:15.151Z,9.17
2018-07-07T19:00:43.614Z,5.30
2018-07-07T19:03:12.083Z,6.13
2018-07-07T19:05:40.576Z,5.87
2018-07-07T19:08:09.100Z,9.63
2018-07-07T19:10:37.622Z,9.33
2018-07-07T19:13:06.411Z,6.80
2018-07-07T19:15:34.910Z,6.47
2018-07-07T19:18:03.362Z,6.57
2018-07-07T19:20:37.206Z,11.23
2018-07-07T19:23:11.211Z,8.53
2018-07-07T19:25:45.162Z,7.27
2018-07-07T19:28:13.654Z,6.53
2018-07-07T19:30:42.193Z,8.00
2018-07-07T19:33:15.785Z,8.87
2018-07-07T19:35:49.241Z,8.63
2018-07-07T19:38:20.078Z,8.00
2018-07-07T19:40:48.588Z,6.30
2018-07-07T19:43:17.110Z,9.53
2018-07-07T19:45:45.637Z,10.07
2018-07-07T19:48:14.132Z,6.80
2018-07-07T19:50:42.667Z,4.17
2018-07-07T19:53:11.147Z,7.93
2018-07-07T19:55:39.643Z,8.93
2018-07-07T19:58:08.123Z,16.40
2018-07-07T20:00:36.581Z,9.40
2018-07-07T20:03:05.032Z,11.77
2018-07-07T20:05:33.642Z,10.90
2018-07-07T20:08:02.138Z,6.47
2018-07-07T20:10:30.622Z,14.60
2018-07-07T20:12:59.072Z,6.23
2018-07-07T20:15:38.841Z,8.40
2018-07-07T20:18:07.807Z,7.90
2018-07-07T20:20:41.782Z,8.30
2018-07-07T20:23:11.651Z,8.13
2018-07-07T20:25:40.155Z,8.07
2018-07-07T20:28:14.095Z,16.53
2018-07-07T20:30:42.319Z,6.43
2018-07-07T20:33:11.098Z,9.57
2018-07-07T20:35:39.619Z,11.00
2018-07-07T20:38:08.061Z,7.77
2018-07-07T20:40:36.600Z,12.33
2018-07-07T20:43:05.111Z,9.43
2018-07-07T20:45:33.699Z,9.07
2018-07-07T20:48:02.506Z,8.67
2018-07-07T20:50:30.677Z,9.53
2018-07-07T20:52:59.217Z,10.47
2018-07-07T20:55:27.763Z,8.10
2018-07-07T20:57:55.963Z,7.50
2018-07-07T21:00:24.499Z,12.30
2018-07-07T21:02:53.027Z,11.10
2018-07-07T21:05:21.911Z,6.03
2018-07-07T21:07:50.410Z,13.53
2018-07-07T21:10:18.864Z,12.23
2018-07-07T21:12:47.371Z,11.27
2018-07-07T21:15:15.871Z,12.83
2018-07-07T21:17:44.444Z,10.73
2018-07-07T21:20:12.930Z,7.63
2018-07-07T21:22:41.436Z,10.53
2018-07-07T21:25:10.182Z,12.27
2018-07-07T21:27:39.147Z,13.40
2018-07-07T21:30:07.639Z,8.30
2018-07-07T21:32:36.207Z,11.37
2018-07-07T21:35:04.755Z,12.13
2018-07-07T21:37:33.279Z,7.37
2018-07-07T21:40:01.765Z,8.67
2018-07-07T21:42:30.407Z,9.63
2018-07-07T21:44:58.968Z,9.70
2018-07-07T21:47:27.409Z,8.67
2018-07-07T21:49:55.905Z,5.27
2018-07-07T21:52:24.415Z,11.20
2018-07-07T21:54:52.881Z,14.80
2018-07-07T21:57:26.823Z,12.43
2018-07-07T21:59:55.807Z,9.00
2018-07-07T22:02:29.715Z,7.40
2018-07-07T22:05:03.529Z,11.87
2018-07-07T22:07:37.241Z,14.13
2018-07-07T22:10:05.929Z,13.17
2018-07-07T22:12:34.415Z,6.33
2018-07-07T22:15:02.957Z,11.33
2018-07-07T22:17:31.456Z,7.60
2018-07-07T22:19:59.915Z,10.43
2018-07-07T22:22:28.154Z,6.83
2018-07-07T22:24:56.703Z,11.80
2018-07-07T22:27:25.328Z,10.20
2018-07-07T22:29:53.866Z,8.37
2018-07-07T22:32:24.030Z,9.87
2018-07-07T22:34:52.943Z,6.90
2018-07-07T22:37:21.595Z,6.00
2018-07-07T22:39:50.206Z,6.27
2018-07-07T22:42:19.631Z,7.57
2018-07-07T22:44:49.227Z,8.87
2018-07-07T22:47:17.788Z,11.83
2018-07-07T22:49:46.503Z,14.60
2018-07-07T22:52:15.091Z,10.07
2018-07-07T22:54:43.683Z,8.63
2018-07-07T22:57:12.955Z,13.50
2018-07-07T22:59:41.530Z,10.10
2018-07-07T23:02:10.111Z,10.37
2018-07-07T23:04:38.611Z,12.43
2018-07-07T23:07:07.107Z,6.10
2018-07-07T23:09:35.855Z,9.50
2018-07-07T23:12:04.422Z,10.00
2018-07-07T23:14:33.075Z,6.33
2018-07-07T23:17:02.449Z,12.23
2018-07-07T23:19:30.568Z,9.47
2018-07-07T23:21:59.134Z,8.90
2018-07-07T23:24:27.642Z,17.97
2018-07-07T23:26:56.220Z,8.07
2018-07-07T23:29:24.961Z,14.57
2018-07-07T23:31:53.502Z,6.23
2018-07-07T23:34:21.969Z,3.33
2018-07-07T23:36:50.506Z,9.33
2018-07-07T23:39:18.976Z,6.53
2018-07-07T23:41:47.632Z,12.60
2018-07-07T23:44:16.080Z,7.40
2018-07-07T23:46:44.640Z,12.30
2018-07-07T23:49:13.145Z,6.93
2018-07-07T23:51:41.739Z,13.37
2018-07-07T23:54:10.255Z,9.70
2018-07-07T23:56:38.834Z,5.63
2018-07-07T23:59:07.049Z,12.80
